Time;durP1;ratioP1;P1;durP2;ratioP2;P2;SDS_P1;SDS_P2;PMS_P1;PMS_P2;Temp;Humidity;BMP_temperature;BMP_pressure;BME280_temperature;BME280_humidity;BME280_pressure;Samples;Min_cycle;Max_cycle;Signal;HPM_P1;HPM_P2
2022/05/23 00:01:41;;;;;;;9.63;3.25;;;;;;;12.77;76.98;100648.31;5063173;28;22458;-72
2022/05/23 00:04:08;;;;;;;4.88;2.70;;;;;;;12.72;76.60;100661.00;5070033;28;20170;-71
2022/05/23 00:06:36;;;;;;;6.35;2.45;;;;;;;12.71;76.82;100673.38;5062552;28;20040;-71
2022/05/23 00:09:03;;;;;;;3.97;2.25;;;;;;;12.68;77.01;100663.84;5048047;28;20486;-71
2022/05/23 00:11:30;;;;;;;4.47;2.85;;;;;;;12.66;77.05;100665.75;5046325;28;20063;-71
2022/05/23 00:13:57;;;;;;;6.18;2.00;;;;;;;12.63;77.32;100655.38;5030737;28;20059;-71
2022/05/23 00:16:27;;;;;;;5.30;2.95;;;;;;;12.60;77.60;100652.94;5031553;28;20036;-70
2022/05/23 00:18:54;;;;;;;4.90;2.67;;;;;;;12.56;78.09;100658.53;5044376;28;20052;-71
2022/05/23 00:21:22;;;;;;;5.18;2.70;;;;;;;12.54;78.33;100663.91;5046730;28;20076;-71
2022/05/23 00:23:49;;;;;;;6.32;3.17;;;;;;;12.50;79.07;100659.78;5034079;28;20079;-71
2022/05/23 00:26:19;;;;;;;7.18;2.50;;;;;;;12.46;79.21;100654.81;5062181;28;20040;-70
2022/05/23 00:28:47;;;;;;;4.72;2.47;;;;;;;12.45;79.37;100661.03;5032439;28;20056;-71
2022/05/23 00:31:15;;;;;;;5.40;3.08;;;;;;;12.43;79.72;100653.25;5031327;28;20037;-71
2022/05/23 00:36:30;;;;;;;6.70;2.75;;;;;;;12.40;79.69;100661.34;5045129;28;20059;-70
2022/05/23 00:38:57;;;;;;;6.70;2.80;;;;;;;12.38;79.70;100655.31;5029949;28;20244;-72
2022/05/23 00:44:20;;;;;;;5.43;2.83;;;;;;;12.36;80.60;100650.13;5045168;28;20384;-71
2022/05/23 00:46:58;;;;;;;8.85;2.90;;;;;;;12.34;80.90;100644.13;5047023;28;20059;-71
2022/05/23 00:49:34;;;;;;;5.30;2.78;;;;;;;12.32;80.88;100640.72;5047632;28;20140;-70
2022/05/23 00:52:04;;;;;;;5.28;3.20;;;;;;;12.29;81.72;100640.06;5059694;28;20048;-72
2022/05/23 00:54:35;;;;;;;6.13;2.67;;;;;;;12.25;81.54;100635.94;5048741;28;20070;-72
2022/05/23 00:57:09;;;;;;;7.80;3.58;;;;;;;12.22;82.02;100636.16;5031439;28;20585;-71
2022/05/23 00:59:37;;;;;;;9.45;3.17;;;;;;;12.17;82.15;100633.84;5045781;28;20067;-71
2022/05/23 01:02:08;;;;;;;6.50;3.05;;;;;;;12.14;82.28;100632.22;5048273;28;20063;-71
2022/05/23 01:04:35;;;;;;;8.85;3.05;;;;;;;12.13;83.34;100627.91;5045353;28;20181;-71
2022/05/23 01:07:03;;;;;;;6.78;3.35;;;;;;;12.10;83.13;100625.44;5065167;28;20040;-71
2022/05/23 01:09:30;;;;;;;7.20;3.65;;;;;;;12.09;83.41;100622.91;5066060;28;20150;-70
2022/05/23 01:11:58;;;;;;;7.88;3.28;;;;;;;12.08;83.98;100614.16;5047515;28;20078;-70
2022/05/23 01:14:26;;;;;;;6.85;3.38;;;;;;;12.07;83.86;100609.00;5030061;28;20052;-70
2022/05/23 01:16:53;;;;;;;6.03;3.00;;;;;;;12.04;83.66;100601.28;5045554;28;20064;-70
2022/05/23 01:19:20;;;;;;;8.18;2.70;;;;;;;12.01;84.48;100604.94;5045121;28;20044;-69
2022/05/23 01:21:59;;;;;;;4.13;2.50;;;;;;;11.98;83.87;100596.38;5054313;28;20048;-71
2022/05/23 01:24:45;;;;;;;5.00;3.00;;;;;;;11.93;84.19;100595.84;5054712;28;20058;-71
2022/05/23 01:27:12;;;;;;;10.73;3.85;;;;;;;11.89;84.69;100601.31;5039560;28;20166;-71
2022/05/23 01:29:44;;;;;;;7.88;2.97;;;;;;;11.88;84.77;100599.59;5046728;28;20048;-70
2022/05/23 01:32:11;;;;;;;7.63;2.97;;;;;;;11.88;84.71;100606.69;5043689;28;20728;-71
2022/05/23 01:34:38;;;;;;;7.72;3.13;;;;;;;11.87;85.30;100602.34;5037399;28;20037;-71
2022/05/23 01:37:06;;;;;;;8.70;3.28;;;;;;;11.85;85.33;100594.56;5043473;28;20044;-71
2022/05/23 01:39:33;;;;;;;6.00;3.20;;;;;;;11.85;84.98;100601.63;5068826;28;20056;-72
2022/05/23 01:42:00;;;;;;;8.50;3.45;;;;;;;11.91;85.87;100601.22;5066209;28;20384;-72
2022/05/23 01:44:28;;;;;;;3.83;3.33;;;;;;;11.94;85.67;100593.13;5053768;28;20067;-72
2022/05/23 01:46:55;;;;;;;6.63;3.70;;;;;;;11.91;85.56;100583.59;5042030;28;20064;-72
2022/05/23 01:49:22;;;;;;;8.85;3.60;;;;;;;11.87;86.30;100575.97;5057695;28;20063;-72
2022/05/23 01:51:49;;;;;;;5.88;2.95;;;;;;;11.82;86.18;100580.69;5051578;28;20055;-72
2022/05/23 01:54:16;;;;;;;5.25;2.60;;;;;;;11.78;85.72;100584.47;5034404;28;20049;-72
2022/05/23 01:56:43;;;;;;;7.35;3.08;;;;;;;11.75;85.80;100582.00;5071247;28;20052;-71
2022/05/23 02:01:56;;;;;;;6.20;3.58;;;;;;;11.70;86.15;100573.56;5059486;28;20075;-72
2022/05/23 02:04:24;;;;;;;7.53;3.20;;;;;;;11.66;86.94;100578.16;5059151;28;20055;-72
2022/05/23 02:06:51;;;;;;;7.25;3.38;;;;;;;11.62;87.13;100574.06;5065328;28;20044;-71
2022/05/23 02:09:26;;;;;;;7.97;3.58;;;;;;;11.57;87.21;100571.72;5031152;28;20068;-71
2022/05/23 02:11:53;;;;;;;6.22;3.30;;;;;;;11.55;87.21;100573.59;5068842;28;20051;-72
2022/05/23 02:14:21;;;;;;;7.30;3.45;;;;;;;11.52;87.82;100570.31;5032341;28;20560;-72
2022/05/23 02:16:48;;;;;;;11.73;3.83;;;;;;;11.49;87.39;100574.00;5028192;28;20044;-72
2022/05/23 02:19:15;;;;;;;6.78;3.55;;;;;;;11.47;86.99;100572.38;5024074;28;20056;-71
2022/05/23 02:21:42;;;;;;;5.85;3.35;;;;;;;11.44;87.24;100562.03;5049830;28;20052;-70
2022/05/23 02:24:09;;;;;;;9.77;4.63;;;;;;;11.45;87.56;100571.66;5048451;28;20645;-70
2022/05/23 02:26:36;;;;;;;6.57;3.92;;;;;;;11.44;87.45;100568.16;5045258;28;20068;-71
2022/05/23 02:29:04;;;;;;;6.75;3.40;;;;;;;11.43;88.05;100565.63;5049564;28;20064;-71
2022/05/23 02:31:31;;;;;;;6.50;3.97;;;;;;;11.44;88.20;100572.56;5043372;28;20387;-72
2022/05/23 02:33:58;;;;;;;6.43;3.85;;;;;;;11.43;88.03;100571.72;5044717;28;20044;-71
2022/05/23 02:36:26;;;;;;;6.60;3.55;;;;;;;11.43;88.21;100565.63;5061926;28;20058;-71
2022/05/23 02:38:53;;;;;;;7.32;4.03;;;;;;;11.40;88.04;100566.66;5063419;28;20048;-71
2022/05/23 02:41:22;;;;;;;7.10;3.55;;;;;;;11.41;88.66;100563.09;5044843;28;20126;-70
2022/05/23 02:43:49;;;;;;;6.18;3.55;;;;;;;11.41;88.02;100560.44;5048983;28;20487;-71
2022/05/23 02:46:16;;;;;;;7.85;4.00;;;;;;;11.39;88.14;100565.84;5042798;28;20458;-72
2022/05/23 02:48:47;;;;;;;7.15;3.22;;;;;;;11.37;88.02;100567.69;5039079;28;20540;-71
2022/05/23 02:51:15;;;;;;;5.63;3.50;;;;;;;11.36;88.30;100570.44;5040886;28;20044;-71
2022/05/23 02:53:42;;;;;;;7.57;4.13;;;;;;;11.33;88.18;100568.84;5067387;28;20060;-71
2022/05/23 02:56:11;;;;;;;6.40;3.70;;;;;;;11.31;88.46;100567.25;5065817;28;20139;-72
2022/05/23 02:58:38;;;;;;;7.70;4.32;;;;;;;11.27;88.16;100561.31;5032818;28;20071;-71
2022/05/23 03:01:05;;;;;;;6.45;3.78;;;;;;;11.25;88.30;100564.97;5063801;28;20462;-72
2022/05/23 03:03:33;;;;;;;9.70;4.28;;;;;;;11.24;88.94;100564.13;5059155;28;20053;-72
2022/05/23 03:06:01;;;;;;;5.50;3.90;;;;;;;11.21;88.64;100564.31;5010668;28;20052;-72
2022/05/23 03:08:28;;;;;;;6.72;4.30;;;;;;;11.18;88.68;100561.06;5051223;28;20067;-72
2022/05/23 03:10:58;;;;;;;6.55;3.95;;;;;;;11.15;89.18;100552.38;5062067;28;20177;-73
2022/05/23 03:13:26;;;;;;;7.03;4.05;;;;;;;11.14;89.17;100552.50;5030107;28;20064;-73
2022/05/23 03:15:53;;;;;;;9.35;4.18;;;;;;;11.14;89.16;100550.69;5038744;28;20063;-72
2022/05/23 03:18:22;;;;;;;6.93;4.10;;;;;;;11.13;90.01;100556.06;5063181;28;20067;-72
2022/05/23 03:20:55;;;;;;;7.50;3.88;;;;;;;11.11;89.77;100563.22;5044188;28;20071;-73
2022/05/23 03:28:53;;;;;;;7.10;3.72;;;;;;;11.13;89.12;100562.19;5051644;28;20055;-72
2022/05/23 03:31:20;;;;;;;6.15;4.30;;;;;;;11.16;89.62;100564.59;5063534;28;20061;-72
2022/05/23 03:33:48;;;;;;;7.72;4.63;;;;;;;11.16;89.33;100556.69;5049219;28;20517;-72
2022/05/23 03:36:15;;;;;;;10.00;4.22;;;;;;;11.18;89.69;100556.63;5065255;28;20068;-72
2022/05/23 03:38:42;;;;;;;7.40;4.03;;;;;;;11.19;89.84;100554.84;5070234;28;20052;-71
2022/05/23 03:41:10;;;;;;;8.05;4.38;;;;;;;11.21;90.18;100566.13;5050943;28;20057;-71
2022/05/23 03:43:45;;;;;;;10.02;4.20;;;;;;;11.22;90.35;100563.41;5047729;28;20036;-71
2022/05/23 03:46:13;;;;;;;7.47;4.20;;;;;;;11.25;89.70;100557.91;5046501;28;20056;-71
2022/05/23 03:48:41;;;;;;;7.50;4.05;;;;;;;11.30;89.63;100547.97;5035889;28;20079;-71
2022/05/23 03:51:08;;;;;;;10.32;4.35;;;;;;;11.34;89.50;100541.53;5048240;28;20045;-71
2022/05/23 03:53:36;;;;;;;9.70;4.50;;;;;;;11.38;89.92;100550.09;5065847;28;20138;-72
2022/05/23 03:56:04;;;;;;;8.57;4.03;;;;;;;11.43;89.71;100549.78;5068654;28;20041;-71
2022/05/23 03:58:31;;;;;;;10.98;5.18;;;;;;;11.48;89.70;100559.09;5048572;28;20045;-71
2022/05/23 04:01:13;;;;;;;8.88;5.10;;;;;;;11.54;89.53;100560.53;5050082;28;20529;-72
2022/05/23 04:03:40;;;;;;;11.65;4.60;;;;;;;11.60;89.10;100554.84;5047537;28;20075;-70
2022/05/23 04:06:08;;;;;;;5.00;4.40;;;;;;;11.66;89.04;100554.44;5051886;28;20110;-71
2022/05/23 04:08:35;;;;;;;9.60;5.63;;;;;;;11.72;88.51;100555.84;5071282;28;20051;-71
2022/05/23 04:11:03;;;;;;;6.82;4.28;;;;;;;11.77;88.42;100554.59;5049720;28;20148;-72
2022/05/23 04:13:31;;;;;;;12.25;4.90;;;;;;;11.81;88.14;100563.16;5039378;28;20412;-71
2022/05/23 04:15:58;;;;;;;8.85;4.63;;;;;;;11.86;87.99;100566.38;5034637;28;20041;-71
2022/05/23 04:18:36;;;;;;;13.20;4.80;;;;;;;11.90;87.24;100570.50;5053811;28;20983;-71
2022/05/23 04:21:05;;;;;;;8.52;4.57;;;;;;;11.97;87.46;100570.94;5060138;28;20070;-72
2022/05/23 04:23:32;;;;;;;10.80;4.85;;;;;;;12.03;87.45;100568.75;5064782;28;20127;-74
2022/05/23 04:26:02;;;;;;;10.48;4.72;;;;;;;12.14;87.04;100562.75;5042562;28;20033;-73
2022/05/23 04:28:30;;;;;;;8.68;4.75;;;;;;;12.22;86.96;100565.75;5055358;28;20059;-70
2022/05/23 04:30:57;;;;;;;8.50;4.63;;;;;;;12.27;86.37;100568.91;5041653;28;20048;-71
2022/05/23 04:36:10;;;;;;;7.47;5.03;;;;;;;12.42;85.38;100564.41;5027694;28;20076;-70
2022/05/23 04:38:43;;;;;;;9.13;4.53;;;;;;;12.46;84.63;100557.13;5068581;28;20048;-70
2022/05/23 04:41:11;;;;;;;11.48;4.65;;;;;;;12.53;84.63;100553.13;5058211;28;20049;-71
2022/05/23 04:43:38;;;;;;;6.65;3.88;;;;;;;12.65;84.51;100557.56;5048404;28;20056;-70
2022/05/23 04:46:05;;;;;;;8.75;5.47;;;;;;;12.73;84.48;100560.50;5047417;28;20040;-70
2022/05/23 04:51:18;;;;;;;5.47;4.20;;;;;;;12.92;83.06;100552.16;5064357;28;20060;-69
2022/05/23 04:53:46;;;;;;;7.03;4.85;;;;;;;13.01;82.62;100545.38;5055831;28;20073;-69
2022/05/23 04:56:13;;;;;;;9.77;4.85;;;;;;;13.05;81.96;100541.56;5045338;28;20049;-69
2022/05/23 04:58:40;;;;;;;6.07;5.15;;;;;;;13.10;81.13;100542.09;5053133;28;20047;-69
2022/05/23 05:01:08;;;;;;;11.45;5.47;;;;;;;13.16;81.05;100542.50;5046058;28;20045;-70
2022/05/23 05:03:35;;;;;;;8.00;5.40;;;;;;;13.26;80.73;100547.19;5065536;28;20068;-69
2022/05/23 05:06:03;;;;;;;8.73;5.05;;;;;;;13.28;80.43;100537.31;5043429;28;20056;-69
2022/05/23 05:08:30;;;;;;;8.68;5.22;;;;;;;13.33;80.06;100533.41;5023628;28;20051;-69
2022/05/23 05:10:58;;;;;;;13.35;5.80;;;;;;;13.42;80.08;100532.75;5047583;28;20371;-70
2022/05/23 05:13:25;;;;;;;6.95;4.70;;;;;;;13.49;79.48;100534.94;5061979;28;20049;-70
2022/05/23 05:15:52;;;;;;;7.60;5.20;;;;;;;13.53;78.65;100526.69;5067032;28;20860;-69
2022/05/23 05:18:20;;;;;;;8.35;5.03;;;;;;;13.59;78.38;100526.22;5053001;28;20036;-69
2022/05/23 05:20:49;;;;;;;11.77;5.70;;;;;;;13.65;78.17;100519.66;5059372;28;20044;-69
2022/05/23 05:23:16;;;;;;;7.85;5.22;;;;;;;13.71;77.16;100515.72;5058564;28;20063;-69
2022/05/23 05:25:43;;;;;;;9.85;5.20;;;;;;;13.73;77.06;100504.03;5046884;28;20057;-69
2022/05/23 05:28:11;;;;;;;7.95;4.93;;;;;;;13.80;77.13;100512.38;5051580;28;20036;-69
2022/05/23 05:30:41;;;;;;;8.65;5.32;;;;;;;13.88;76.87;100515.31;5058458;28;20537;-69
2022/05/23 05:33:12;;;;;;;5.95;4.40;;;;;;;13.99;76.53;100509.19;5050337;28;20087;-70
2022/05/23 05:35:47;;;;;;;10.35;4.40;;;;;;;14.12;75.45;100504.69;5045497;28;20051;-69
2022/05/23 05:38:36;;;;;;;7.05;4.30;;;;;;;14.10;74.48;100506.63;5040571;28;20371;-70
2022/05/23 05:41:09;;;;;;;8.55;4.35;;;;;;;14.19;74.61;100511.22;5043083;28;20064;-70
2022/05/23 05:43:50;;;;;;;8.25;4.28;;;;;;;14.31;74.27;100498.81;5042101;28;20125;-70
2022/05/23 05:46:23;;;;;;;7.85;3.75;;;;;;;14.43;73.39;100504.03;5057140;28;20159;-69
2022/05/23 05:48:52;;;;;;;7.80;4.07;;;;;;;14.47;72.81;100494.03;5038081;28;20192;-69
2022/05/23 05:51:22;;;;;;;9.48;4.30;;;;;;;14.59;72.70;100493.13;5040591;28;20047;-71
2022/05/23 05:53:49;;;;;;;5.95;3.72;;;;;;;14.72;71.44;100495.63;5024582;28;20044;-69
2022/05/23 05:56:17;;;;;;;5.97;3.65;;;;;;;14.84;70.93;100492.03;5029547;28;20049;-69
2022/05/23 05:58:45;;;;;;;8.13;3.70;;;;;;;14.92;70.27;100492.28;5045320;28;20075;-69
2022/05/23 06:01:12;;;;;;;8.00;3.60;;;;;;;15.01;70.05;100493.38;5039868;28;20036;-70
2022/05/23 06:03:40;;;;;;;5.97;3.42;;;;;;;15.09;69.29;100496.25;5036915;28;20427;-70
2022/05/23 06:11:40;;;;;;;4.60;2.85;;;;;;;15.46;67.52;100480.00;5042377;28;20055;-69
2022/05/23 06:14:08;;;;;;;7.40;3.15;;;;;;;15.60;66.82;100473.56;5042629;28;20040;-69
2022/05/23 06:16:36;;;;;;;9.07;3.78;;;;;;;15.69;66.33;100471.03;5041947;28;20066;-70
2022/05/23 06:19:04;;;;;;;7.00;3.15;;;;;;;15.81;66.01;100466.53;5043332;28;20045;-70
2022/05/23 06:21:32;;;;;;;6.75;2.75;;;;;;;15.95;65.42;100460.91;5054624;28;20086;-70
2022/05/23 06:23:59;;;;;;;3.97;2.20;;;;;;;16.04;64.48;100459.28;5047707;28;20354;-70
2022/05/23 06:26:32;;;;;;;6.93;3.08;;;;;;;16.03;62.48;100456.75;5055635;28;20140;-70
2022/05/23 06:28:59;;;;;;;8.68;2.90;;;;;;;16.06;62.54;100453.84;5064065;28;20066;-70
2022/05/23 06:31:26;;;;;;;6.30;2.50;;;;;;;16.15;62.02;100453.06;5061041;28;20044;-70
2022/05/23 06:33:54;;;;;;;6.25;2.20;;;;;;;16.19;61.39;100449.16;5046072;28;20489;-70
2022/05/23 06:36:21;;;;;;;3.53;2.10;;;;;;;16.22;60.44;100438.28;5029984;28;20044;-71
2022/05/23 06:38:49;;;;;;;6.95;2.80;;;;;;;16.27;61.24;100437.91;5046063;28;20040;-70
2022/05/23 06:45:29;;;;;;;4.97;2.17;;;;;;;16.75;59.24;100445.25;5056685;28;20174;-70
2022/05/23 06:47:57;;;;;;;6.20;2.75;;;;;;;16.76;58.84;100431.84;5053372;28;20398;-70
2022/05/23 06:51:02;;;;;;;7.28;2.42;;;;;;;16.96;59.01;100433.59;5043904;28;20044;-71
2022/05/23 06:53:30;;;;;;;5.45;2.30;;;;;;;17.14;58.20;100428.44;5061044;28;20554;-71
2022/05/23 06:55:57;;;;;;;6.38;2.58;;;;;;;17.31;57.22;100426.09;5045308;28;20120;-70
2022/05/23 06:58:26;;;;;;;5.10;1.92;;;;;;;17.42;57.27;100431.28;5043184;28;20128;-70
2022/05/23 07:00:53;;;;;;;5.38;2.08;;;;;;;17.61;57.13;100420.66;5031726;28;20071;-70
2022/05/23 07:03:21;;;;;;;4.40;2.25;;;;;;;17.85;56.61;100422.91;5049711;28;20514;-70
2022/05/23 07:14:07;;;;;;;;;;;;;;;18.46;53.64;100411.81;5042004;28;20044;-70
2022/05/23 07:16:34;;;;;;;3.85;1.60;;;;;;;18.65;53.30;100407.38;5054741;28;19993;-70
2022/05/23 07:19:04;;;;;;;5.80;2.05;;;;;;;18.75;52.50;100397.53;5062588;28;20220;-70
2022/05/23 07:21:32;;;;;;;4.40;2.00;;;;;;;18.94;52.95;100397.41;5022200;28;20076;-69
2022/05/23 07:23:59;;;;;;;3.97;2.08;;;;;;;19.09;52.06;100391.53;5053134;28;20080;-69
2022/05/23 07:26:27;;;;;;;3.25;1.83;;;;;;;19.18;51.45;100398.66;5044156;28;20072;-70
2022/05/23 07:28:55;;;;;;;3.42;1.85;;;;;;;19.26;50.91;100403.22;5066180;28;20040;-70
2022/05/23 07:31:22;;;;;;;6.35;1.90;;;;;;;19.31;50.82;100398.28;5063118;28;20053;-74
2022/05/23 07:33:50;;;;;;;7.60;2.35;;;;;;;19.45;50.29;100395.94;5048715;28;20062;-69
2022/05/23 07:36:18;;;;;;;5.05;1.98;;;;;;;19.61;49.76;100387.25;5050749;28;20047;-70
2022/05/23 07:38:46;;;;;;;2.67;1.48;;;;;;;19.75;49.13;100396.53;5057718;28;20044;-70
2022/05/23 07:41:14;;;;;;;5.22;1.85;;;;;;;19.74;47.96;100389.50;5032056;28;20051;-70
2022/05/23 07:43:42;;;;;;;3.17;1.80;;;;;;;19.67;47.72;100378.59;5019890;28;20049;-70
2022/05/23 07:46:13;;;;;;;4.07;1.67;;;;;;;19.70;48.36;100374.78;5033020;28;20582;-70
2022/05/23 07:48:46;;;;;;;3.80;1.73;;;;;;;19.76;48.28;100370.66;5037007;28;20056;-70
2022/05/23 07:51:18;;;;;;;4.00;1.80;;;;;;;19.80;48.17;100366.69;5064582;28;20147;-70
2022/05/23 08:02:04;;;;;;;5.00;1.88;;;;;;;20.17;46.68;100353.03;5059758;28;20131;-70
2022/05/23 08:04:31;;;;;;;6.32;1.88;;;;;;;20.10;46.06;100354.69;5037562;28;20060;-70
2022/05/23 08:06:59;;;;;;;5.18;1.95;;;;;;;20.18;46.47;100354.75;5047389;28;20060;-70
2022/05/23 08:09:26;;;;;;;4.82;1.67;;;;;;;20.27;46.09;100344.94;5062413;28;20063;-70
2022/05/23 08:11:54;;;;;;;4.32;1.40;;;;;;;20.39;45.21;100357.00;5064331;28;20631;-70
2022/05/23 08:14:22;;;;;;;2.83;1.50;;;;;;;20.54;44.82;100349.25;5069105;28;20076;-70
2022/05/23 08:16:50;;;;;;;4.78;1.50;;;;;;;20.69;44.34;100344.94;5043541;28;20071;-71
2022/05/23 08:19:17;;;;;;;4.65;1.23;;;;;;;20.89;43.63;100349.03;5060574;28;20127;-69
2022/05/23 08:21:51;;;;;;;2.80;1.60;;;;;;;20.97;42.68;100350.84;5066850;28;20047;-69
2022/05/23 08:24:19;;;;;;;4.68;1.45;;;;;;;20.99;42.69;100349.72;5066544;28;20137;-69
2022/05/23 08:26:47;;;;;;;3.60;1.50;;;;;;;21.08;43.04;100336.34;5047700;28;20515;-70
2022/05/23 08:29:14;;;;;;;3.35;1.40;;;;;;;21.07;42.56;100338.16;5045195;28;20051;-71
2022/05/23 08:31:46;;;;;;;4.30;1.50;;;;;;;21.27;42.57;100322.63;5057012;28;20195;-69
2022/05/23 08:34:14;;;;;;;4.10;1.60;;;;;;;21.40;42.11;100324.84;5068649;28;20162;-69
2022/05/23 08:36:41;;;;;;;3.75;1.98;;;;;;;21.58;42.07;100317.47;5023411;28;20059;-69
2022/05/23 08:39:09;;;;;;;5.32;1.70;;;;;;;21.69;41.88;100318.94;5065534;28;20040;-69
2022/05/23 08:41:39;;;;;;;4.80;1.63;;;;;;;21.72;41.05;100326.66;5040567;28;20126;-69
2022/05/23 08:44:16;;;;;;;3.50;1.20;;;;;;;21.75;40.30;100329.00;5034685;28;20048;-69
2022/05/23 08:47:03;;;;;;;3.03;1.70;;;;;;;21.72;39.83;100319.44;5062274;28;20058;-69
2022/05/23 08:49:38;;;;;;;5.47;1.75;;;;;;;21.76;40.65;100317.28;5053989;28;20426;-69
2022/05/23 08:52:09;;;;;;;;;;;;;;;21.91;40.22;100318.22;5046841;28;20071;-70
2022/05/23 08:55:26;;;;;;;3.50;1.35;;;;;;;21.92;39.88;100325.25;5051499;28;19929;-70
2022/05/23 08:58:08;;;;;;;5.13;1.42;;;;;;;21.95;39.31;100318.72;5066790;28;20072;-70
2022/05/23 09:00:48;;;;;;;5.10;1.52;;;;;;;22.13;39.55;100323.91;5032691;28;20094;-70
2022/05/23 09:03:20;;;;;;;3.47;1.33;;;;;;;22.30;39.67;100311.28;5050026;28;20048;-70
2022/05/23 09:05:53;;;;;;;4.32;1.67;;;;;;;22.54;39.37;100308.47;5048225;28;20052;-70
2022/05/23 09:08:48;;;;;;;6.00;1.25;;;;;;;22.39;38.71;100307.56;5033760;28;20912;-70
2022/05/23 09:11:27;;;;;;;12.27;1.90;;;;;;;22.45;38.23;100309.53;5062060;28;20075;-70
2022/05/23 09:13:55;;;;;;;4.47;1.90;;;;;;;22.59;38.25;100295.38;5064608;28;20051;-68
2022/05/23 09:16:32;;;;;;;5.03;1.88;;;;;;;22.72;37.49;100292.09;5039293;28;20056;-69
2022/05/23 09:19:17;;;;;;;3.72;1.63;;;;;;;22.92;37.63;100284.44;5030552;28;20036;-70
2022/05/23 09:24:52;;;;;;;2.70;1.48;;;;;;;22.94;36.12;100282.44;5065530;28;20052;-69
2022/05/23 09:27:39;;;;;;;2.50;1.40;;;;;;;22.94;37.29;100271.69;5028963;28;20052;-70
2022/05/23 09:30:11;;;;;;;5.70;1.55;;;;;;;23.00;36.94;100270.97;5050359;28;20043;-70
2022/05/23 09:33:00;;;;;;;6.90;1.42;;;;;;;22.89;36.39;100266.00;5030924;28;20045;-69
2022/05/23 09:35:46;;;;;;;8.05;1.48;;;;;;;22.85;36.12;100267.38;5058947;28;20043;-68
2022/05/23 09:38:31;;;;;;;3.67;1.77;;;;;;;23.17;35.79;100264.47;5052380;28;20068;-69
2022/05/23 09:41:00;;;;;;;3.90;1.75;;;;;;;23.24;35.47;100272.63;5058156;28;20455;-69
2022/05/23 09:49:14;;;;;;;5.50;1.35;;;;;;;22.96;34.33;100261.59;5073891;28;20040;-69
2022/05/23 09:51:59;;;;;;;3.72;1.30;;;;;;;23.06;34.16;100248.78;5022341;28;20036;-68
2022/05/23 09:54:57;;;;;;;3.53;0.80;;;;;;;23.24;34.26;100245.78;5060403;28;20052;-69
2022/05/23 09:57:41;;;;;;;2.42;1.00;;;;;;;23.45;33.14;100262.00;5053819;28;20044;-69
2022/05/23 10:00:10;;;;;;;2.22;0.85;;;;;;;23.07;32.50;100246.94;5060759;28;20135;-69
2022/05/23 10:02:54;;;;;;;2.92;0.95;;;;;;;22.93;32.95;100243.19;5056852;28;20527;-69
2022/05/23 10:05:27;;;;;;;2.08;0.88;;;;;;;22.80;33.09;100230.34;5047381;28;20462;-69
2022/05/23 10:07:59;;;;;;;2.83;1.25;;;;;;;22.85;33.72;100227.13;5034818;28;20044;-69
2022/05/23 10:10:32;;;;;;;3.67;1.20;;;;;;;22.94;33.53;100226.06;5059682;28;20048;-70
2022/05/23 10:13:13;;;;;;;4.05;1.00;;;;;;;23.25;33.44;100213.38;5054785;28;20044;-69
2022/05/23 10:15:46;;;;;;;4.25;1.13;;;;;;;23.46;33.27;100223.41;5054791;28;20517;-70
2022/05/23 10:18:24;;;;;;;5.63;1.20;;;;;;;23.50;32.72;100223.84;5061221;28;20084;-69
2022/05/23 10:20:56;;;;;;;3.55;1.15;;;;;;;23.34;33.05;100214.13;5058771;28;20133;-70
2022/05/23 10:23:29;;;;;;;2.60;1.10;;;;;;;23.44;32.81;100220.06;5056356;28;20135;-69
2022/05/23 10:26:18;;;;;;;3.63;1.10;;;;;;;23.37;32.66;100210.22;5033704;28;20064;-69
2022/05/23 10:28:53;;;;;;;7.75;1.70;;;;;;;23.33;33.33;100217.84;5032360;28;20049;-69
2022/05/23 10:31:30;;;;;;;3.90;1.60;;;;;;;23.28;33.59;100203.25;5026990;28;20481;-69
2022/05/23 10:34:21;;;;;;;2.72;1.20;;;;;;;23.27;33.23;100202.44;5033458;28;20179;-69
2022/05/23 10:36:53;;;;;;;2.35;1.15;;;;;;;23.50;33.79;100196.97;5060038;28;20063;-69
2022/05/23 10:42:18;;;;;;;7.28;1.73;;;;;;;24.02;33.54;100187.16;5065369;28;20048;-69
2022/05/23 10:45:06;;;;;;;4.20;0.98;;;;;;;24.01;32.80;100189.03;5056706;28;20056;-69
2022/05/23 10:47:54;;;;;;;1.95;1.10;;;;;;;24.19;33.13;100181.38;5061650;28;20103;-69
2022/05/23 10:50:26;;;;;;;4.13;1.35;;;;;;;24.40;32.25;100183.28;5038382;28;20064;-70
2022/05/23 10:53:34;;;;;;;4.40;1.60;;;;;;;24.50;32.20;100175.75;5056924;28;20089;-70
2022/05/23 10:56:06;;;;;;;3.35;1.20;;;;;;;24.54;31.71;100167.25;5038113;28;20033;-69
2022/05/23 10:58:45;;;;;;;3.45;1.58;;;;;;;24.44;30.89;100181.88;5063604;28;20087;-69
2022/05/23 11:01:13;;;;;;;3.50;1.00;;;;;;;24.29;30.65;100167.63;5043774;28;20049;-69
2022/05/23 11:03:50;;;;;;;3.75;1.30;;;;;;;24.26;31.26;100155.38;5056157;28;20052;-70
2022/05/23 11:06:24;;;;;;;3.10;1.15;;;;;;;24.58;31.34;100169.38;5059077;28;20052;-69
2022/05/23 11:09:03;;;;;;;3.97;1.30;;;;;;;24.62;30.95;100173.34;5044818;28;20086;-70
2022/05/23 11:11:53;;;;;;;4.72;1.20;;;;;;;24.38;31.71;100162.97;5060060;28;21024;-72
2022/05/23 11:14:29;;;;;;;3.28;1.00;;;;;;;24.17;31.43;100155.69;5062181;28;20117;-70
2022/05/23 11:17:22;;;;;;;2.45;1.20;;;;;;;24.16;31.34;100151.34;5024216;28;20072;-70
2022/05/23 11:20:12;;;;;;;3.40;1.25;;;;;;;24.32;31.36;100134.13;5048570;28;20054;-69
2022/05/23 11:22:44;;;;;;;2.60;1.30;;;;;;;24.74;31.27;100134.13;5055520;28;20076;-70
2022/05/23 11:25:34;;;;;;;5.38;1.35;;;;;;;24.92;30.67;100128.25;5043398;28;20060;-70
2022/05/23 11:34:22;;;;;;;4.90;1.13;;;;;;;25.33;29.76;100108.66;5033086;28;20072;-69
2022/05/23 11:37:01;;;;;;;5.70;1.42;;;;;;;25.38;29.96;100127.75;5038211;28;20537;-69
2022/05/23 11:39:49;;;;;;;2.20;1.17;;;;;;;25.48;30.13;100117.44;5016961;28;20656;-70
2022/05/23 11:42:22;;;;;;;4.43;1.05;;;;;;;25.80;29.67;100116.97;5045230;28;20097;-69
2022/05/23 11:44:49;;;;;;;4.60;1.38;;;;;;;25.87;29.20;100101.66;5040347;28;20179;-69
2022/05/23 11:47:28;;;;;;;4.25;1.13;;;;;;;25.91;28.77;100119.13;5059410;28;20060;-69
2022/05/23 11:50:00;;;;;;;4.22;1.70;;;;;;;25.80;29.48;100109.72;5022132;28;20055;-70
2022/05/23 11:52:43;;;;;;;3.40;1.20;;;;;;;25.83;29.30;100090.44;5048614;28;20128;-70
2022/05/23 11:55:12;;;;;;;3.00;1.20;;;;;;;26.20;29.64;100080.16;5061528;28;21188;-70
2022/05/23 11:57:41;;;;;;;7.47;1.50;;;;;;;26.37;29.55;100078.72;5029359;28;20883;-70
2022/05/23 12:00:27;;;;;;;2.40;1.30;;;;;;;26.43;29.47;100071.66;5046181;28;20175;-70
2022/05/23 12:03:11;;;;;;;5.55;1.40;;;;;;;26.47;29.04;100062.16;5056721;28;20059;-71
2022/05/23 12:05:39;;;;;;;3.58;1.63;;;;;;;26.53;29.18;100060.50;5038194;28;20156;-68
2022/05/23 12:08:28;;;;;;;2.78;1.10;;;;;;;26.74;28.80;100068.38;5068622;28;20064;-69
2022/05/23 12:10:58;;;;;;;5.15;1.70;;;;;;;26.95;29.05;100070.00;5040007;28;20494;-69
2022/05/23 12:13:37;;;;;;;3.40;1.23;;;;;;;26.69;28.87;100060.06;5008225;28;20089;-69
2022/05/23 12:16:26;;;;;;;5.38;1.33;;;;;;;26.01;29.39;100046.72;5043639;28;21841;-70
2022/05/23 12:19:11;;;;;;;6.97;1.52;;;;;;;25.79;29.61;100046.06;5029487;28;20135;-69
2022/05/23 12:21:43;;;;;;;;;;;;;;;25.81;30.25;100043.16;5056943;28;20777;-69
2022/05/23 12:24:27;;;;;;;6.18;1.60;;;;;;;25.98;29.97;100047.97;5065247;28;19928;-69
2022/05/23 12:27:34;;;;;;;4.22;1.40;;;;;;;26.43;29.68;100039.28;5045215;28;20063;-69
2022/05/23 12:30:24;;;;;;;4.93;1.30;;;;;;;26.71;28.89;100028.31;5054050;28;20054;-70
2022/05/23 12:33:00;;;;;;;4.28;1.20;;;;;;;27.19;28.93;100028.81;5043056;28;20040;-70
2022/05/23 12:35:44;;;;;;;3.72;1.30;;;;;;;27.86;28.55;100028.53;5026527;28;20168;-69
2022/05/23 12:38:31;;;;;;;5.67;1.40;;;;;;;28.48;27.04;100024.94;5041424;28;20041;-69
2022/05/23 12:41:06;;;;;;;4.57;1.42;;;;;;;28.81;25.74;100022.97;5007381;28;20523;-69
2022/05/23 12:43:55;;;;;;;3.15;1.40;;;;;;;28.95;25.86;100010.94;5044690;28;20077;-69
2022/05/23 12:46:48;;;;;;;2.78;1.17;;;;;;;29.03;25.75;100013.38;5060121;28;20072;-70
2022/05/23 12:49:27;;;;;;;3.92;1.42;;;;;;;29.03;25.71;100002.53;5039977;28;20370;-70
2022/05/23 12:52:15;;;;;;;4.05;1.23;;;;;;;29.05;26.19;99989.59;5054602;28;20066;-71